Аэропорт: Ленкорань. Ленкорань

ICAO: UBBL

METAR:
2019/03/26 13:00
UBBL 261300Z VRB02KT 9000 OVC025 08/06 Q1018 R33/CLRD// NOSIG RMK MT OBSC
METAR:
2019/03/26 12:00
TAF UBBL 261122Z 2612/2712 08006KT 6000 SCT012 OVC020 TX08/2612Z TN04/2703Z 
      TEMPO 2612/2617 4000 -RA BR BKN008 
      BECMG 2617/2618 13008KT 
      TEMPO 2618/2705 18006KT 2000 BR BKN005